createdAt,value
2022-11-30T00:00:30.443Z,99.00
2022-11-30T00:05:33.174Z,98.00
2022-11-30T00:10:35.633Z,99.90
2022-11-30T00:15:38.216Z,96.90
2022-11-30T00:20:40.663Z,99.90
2022-11-30T00:25:43.118Z,98.70
2022-11-30T00:30:45.627Z,99.90
2022-11-30T00:35:56.987Z,98.50
2022-11-30T00:41:00.777Z,98.70
2022-11-30T00:46:03.439Z,99.90
2022-11-30T00:51:07.487Z,98.70
2022-11-30T00:56:10.571Z,99.40
2022-11-30T01:01:13.054Z,99.90
2022-11-30T01:06:15.710Z,98.80
2022-11-30T01:11:24.579Z,99.90
2022-11-30T01:16:29.973Z,99.90
2022-11-30T01:21:32.569Z,99.90
2022-11-30T01:26:34.984Z,99.90
2022-11-30T01:31:37.373Z,99.50
2022-11-30T01:36:39.709Z,99.90
2022-11-30T01:41:42.904Z,99.10
2022-11-30T01:46:46.513Z,95.30
2022-11-30T01:51:52.797Z,99.20
2022-11-30T01:57:04.261Z,98.20
2022-11-30T02:02:06.871Z,98.40
2022-11-30T02:07:09.748Z,99.90
2022-11-30T02:12:30.864Z,98.40
2022-11-30T02:18:02.854Z,98.90
2022-11-30T02:23:26.790Z,99.90
2022-11-30T02:28:44.383Z,99.50
2022-11-30T02:33:49.126Z,99.90
2022-11-30T02:38:52.333Z,98.70
2022-11-30T02:43:54.724Z,97.70
2022-11-30T02:49:07.408Z,99.90
2022-11-30T02:54:10.314Z,99.90
2022-11-30T02:59:12.809Z,99.90
2022-11-30T03:04:15.381Z,98.60
2022-11-30T03:09:17.854Z,97.60
2022-11-30T03:14:20.396Z,99.90
2022-11-30T03:19:22.847Z,99.90
2022-11-30T03:24:25.654Z,97.70
2022-11-30T03:29:28.051Z,97.20
2022-11-30T03:34:30.502Z,99.90
2022-11-30T03:39:33.044Z,98.40
2022-11-30T03:44:35.482Z,98.00
2022-11-30T03:49:37.871Z,97.60
2022-11-30T03:54:40.251Z,99.70
2022-11-30T03:59:42.632Z,98.80
2022-11-30T04:04:45.434Z,98.40
2022-11-30T04:09:48.057Z,99.90
2022-11-30T04:14:50.437Z,97.10
2022-11-30T04:19:52.856Z,97.60
2022-11-30T04:24:55.191Z,97.30
2022-11-30T04:29:57.537Z,99.70
2022-11-30T04:35:00.029Z,98.40
2022-11-30T04:40:02.678Z,96.10
2022-11-30T04:45:05.453Z,98.40
2022-11-30T04:50:08.523Z,99.90
2022-11-30T04:55:10.956Z,98.30
2022-11-30T05:00:15.282Z,99.90
2022-11-30T05:05:17.793Z,99.90
2022-11-30T05:10:20.134Z,99.90
2022-11-30T05:15:22.831Z,99.80
2022-11-30T05:20:25.334Z,99.90
2022-11-30T05:25:27.843Z,97.90
2022-11-30T05:30:30.407Z,99.90
2022-11-30T05:35:32.942Z,97.90
2022-11-30T05:40:35.624Z,99.90
2022-11-30T05:45:38.067Z,99.90
2022-11-30T05:50:40.462Z,97.10
2022-11-30T05:55:42.866Z,98.80
2022-11-30T06:00:45.402Z,99.90
2022-11-30T06:05:51.403Z,99.40
2022-11-30T06:10:54.261Z,99.90
2022-11-30T06:16:00.197Z,99.90
2022-11-30T06:21:08.940Z,99.90
2022-11-30T06:26:12.848Z,98.60
2022-11-30T06:31:15.667Z,96.40
2022-11-30T06:36:24.432Z,98.10
2022-11-30T06:41:27.192Z,96.50
2022-11-30T06:46:29.661Z,99.90
2022-11-30T06:51:32.271Z,99.90
2022-11-30T06:56:34.635Z,95.30
2022-11-30T07:01:37.088Z,90.70
2022-11-30T07:06:39.496Z,86.00
2022-11-30T07:11:41.903Z,89.70
2022-11-30T07:16:44.307Z,85.00
2022-11-30T07:21:46.649Z,86.00
2022-11-30T07:26:49.039Z,90.20
2022-11-30T07:31:52.984Z,90.70
2022-11-30T07:36:55.440Z,91.40
2022-11-30T07:41:57.886Z,93.80
2022-11-30T07:47:01.705Z,94.50
2022-11-30T07:52:04.723Z,94.20
2022-11-30T07:57:07.122Z,90.30
2022-11-30T08:02:11.044Z,93.00
2022-11-30T08:07:13.583Z,91.40
2022-11-30T08:12:15.951Z,95.10
2022-11-30T08:17:18.762Z,97.50
2022-11-30T08:22:21.269Z,96.90
2022-11-30T08:27:23.862Z,94.30
2022-11-30T08:32:26.462Z,94.10
2022-11-30T08:37:29.039Z,94.40
2022-11-30T08:42:31.874Z,94.90
2022-11-30T08:47:34.650Z,97.60
2022-11-30T08:52:37.103Z,98.20
2022-11-30T08:57:39.787Z,97.20
2022-11-30T09:02:42.266Z,95.80
2022-11-30T09:07:44.706Z,94.90
2022-11-30T09:12:47.299Z,95.30
2022-11-30T09:17:50.097Z,94.60
2022-11-30T09:22:53.383Z,93.90
2022-11-30T09:27:55.739Z,95.70
2022-11-30T09:33:00.515Z,91.00
2022-11-30T09:38:03.906Z,95.70
2022-11-30T09:43:30.321Z,96.60
2022-11-30T09:49:02.624Z,95.20
2022-11-30T09:54:11.707Z,99.90
2022-11-30T09:59:29.682Z,96.90
2022-11-30T10:04:32.063Z,97.00
2022-11-30T10:10:15.920Z,95.00
2022-11-30T10:15:33.820Z,98.40
2022-11-30T10:20:58.823Z,99.00
2022-11-30T10:26:11.960Z,97.50
2022-11-30T10:31:15.602Z,95.10
2022-11-30T10:36:38.099Z,98.80
2022-11-30T10:41:47.644Z,95.70
2022-11-30T10:47:15.137Z,97.50
2022-11-30T10:52:25.938Z,97.90
2022-11-30T10:57:31.693Z,96.60
2022-11-30T11:02:43.441Z,96.70
2022-11-30T11:08:17.165Z,94.40
2022-11-30T11:13:36.010Z,97.60
2022-11-30T11:18:55.991Z,99.40
2022-11-30T11:23:58.739Z,98.20
2022-11-30T11:29:01.198Z,99.90
2022-11-30T11:34:05.783Z,96.80
2022-11-30T11:39:26.049Z,95.00
2022-11-30T11:44:28.548Z,99.90
2022-11-30T11:49:35.225Z,98.70
2022-11-30T11:54:51.735Z,96.80
2022-11-30T12:00:17.708Z,99.30
2022-11-30T12:05:29.841Z,97.00
2022-11-30T12:10:52.547Z,98.50
2022-11-30T12:16:19.934Z,97.50
2022-11-30T12:21:34.346Z,99.90
2022-11-30T12:26:50.765Z,99.90
2022-11-30T12:32:20.176Z,99.90
2022-11-30T12:37:51.950Z,97.20
2022-11-30T12:43:09.066Z,98.00
2022-11-30T12:48:38.771Z,97.40
2022-11-30T12:54:04.507Z,94.70
2022-11-30T12:59:21.951Z,95.10
2022-11-30T13:04:28.524Z,98.60
2022-11-30T13:09:49.462Z,96.80
2022-11-30T13:14:58.850Z,97.00
2022-11-30T13:20:15.842Z,95.10
2022-11-30T13:26:06.297Z,98.70
2022-11-30T13:30:59.566Z,99.10
2022-11-30T13:36:06.766Z,97.60
2022-11-30T13:41:09.444Z,99.00
2022-11-30T13:46:19.769Z,95.40
2022-11-30T13:51:40.218Z,98.30
2022-11-30T13:56:48.447Z,97.20
2022-11-30T14:07:52.834Z,96.90
2022-11-30T14:13:04.522Z,97.30
2022-11-30T14:18:09.643Z,95.50
2022-11-30T14:23:17.223Z,87.70
2022-11-30T14:28:34.794Z,90.20
2022-11-30T14:34:06.422Z,88.20
2022-11-30T14:39:33.728Z,92.10
2022-11-30T14:44:39.855Z,90.90
2022-11-30T14:49:47.940Z,92.90
2022-11-30T14:55:08.177Z,92.50
2022-11-30T15:00:19.903Z,91.20
2022-11-30T15:05:27.293Z,93.10
2022-11-30T15:10:33.069Z,95.40
2022-11-30T15:15:41.424Z,95.80
2022-11-30T15:20:47.839Z,94.80
2022-11-30T15:25:58.520Z,93.30
2022-11-30T15:31:04.671Z,93.50
2022-11-30T15:36:28.237Z,89.40
2022-11-30T15:41:30.870Z,90.70
2022-11-30T15:46:46.049Z,92.90
2022-11-30T15:52:02.299Z,92.60
2022-11-30T15:57:08.831Z,89.00
2022-11-30T16:02:32.643Z,91.90
2022-11-30T16:07:38.802Z,86.90
2022-11-30T16:12:43.674Z,92.70
2022-11-30T16:17:46.221Z,90.10
2022-11-30T16:22:49.358Z,91.70
2022-11-30T16:27:53.973Z,92.20
2022-11-30T16:32:56.407Z,95.00
2022-11-30T16:37:58.806Z,95.90
2022-11-30T16:43:01.246Z,95.90
2022-11-30T16:48:04.324Z,91.50
2022-11-30T16:53:06.921Z,92.30
2022-11-30T16:58:09.342Z,91.50
2022-11-30T17:03:29.801Z,92.10
2022-11-30T17:08:32.303Z,90.40
2022-11-30T17:13:34.719Z,91.80
2022-11-30T17:18:37.129Z,82.40
2022-11-30T17:23:39.589Z,78.80
2022-11-30T17:28:42.419Z,80.30
2022-11-30T17:33:48.129Z,82.10
2022-11-30T17:43:53.974Z,99.90
2022-11-30T17:48:56.481Z,99.90
2022-11-30T17:53:58.872Z,99.90
2022-11-30T17:59:01.209Z,99.70
2022-11-30T18:04:03.725Z,94.50
2022-11-30T18:09:06.304Z,96.50
2022-11-30T18:14:08.705Z,94.80
2022-11-30T18:19:15.105Z,96.80
2022-11-30T18:24:21.212Z,96.90
2022-11-30T18:29:28.041Z,97.20
2022-11-30T18:34:30.462Z,94.40
2022-11-30T18:39:32.955Z,98.10
2022-11-30T18:44:35.554Z,96.40
2022-11-30T18:49:38.322Z,94.60
2022-11-30T18:54:40.629Z,91.40
2022-11-30T18:59:43.041Z,96.50
2022-11-30T19:04:45.545Z,95.40
2022-11-30T19:09:48.170Z,91.20
2022-11-30T19:14:50.817Z,93.80
2022-11-30T19:19:53.356Z,92.60
2022-11-30T19:24:55.962Z,93.30
2022-11-30T19:30:00.126Z,93.80
2022-11-30T19:35:02.568Z,90.10
2022-11-30T19:40:06.289Z,93.90
2022-11-30T19:45:09.601Z,95.20
2022-11-30T19:50:12.169Z,96.90
2022-11-30T19:55:14.727Z,95.00
2022-11-30T20:00:17.474Z,84.80
2022-11-30T20:05:19.871Z,99.90
2022-11-30T20:10:22.721Z,98.60
2022-11-30T20:15:25.770Z,99.90
2022-11-30T20:20:28.171Z,92.00
2022-11-30T20:25:31.934Z,99.90
2022-11-30T20:30:34.404Z,95.40
2022-11-30T20:35:37.009Z,94.50
2022-11-30T20:40:40.029Z,95.80
2022-11-30T20:45:42.678Z,89.00
2022-11-30T20:51:00.942Z,95.30
2022-11-30T20:56:08.950Z,93.90
2022-11-30T21:01:14.287Z,88.30
2022-11-30T21:06:16.967Z,97.10
2022-11-30T21:11:20.837Z,95.00
2022-11-30T21:16:28.144Z,97.20
2022-11-30T21:21:34.040Z,96.50
2022-11-30T21:26:41.764Z,96.20
2022-11-30T21:31:45.048Z,91.90
2022-11-30T21:36:47.818Z,95.80
2022-11-30T21:41:50.426Z,94.80
2022-11-30T21:46:53.008Z,94.70
2022-11-30T21:51:55.409Z,92.80
2022-11-30T21:56:57.775Z,98.80
2022-11-30T22:02:00.367Z,94.60
2022-11-30T22:07:02.926Z,98.10
2022-11-30T22:12:05.789Z,95.40
2022-11-30T22:17:08.598Z,94.40
2022-11-30T22:22:10.911Z,99.70
2022-11-30T22:27:13.397Z,90.60
2022-11-30T22:32:15.955Z,99.90
2022-11-30T22:37:18.275Z,99.30
2022-11-30T22:42:20.716Z,97.50
2022-11-30T22:47:23.153Z,95.90
2022-11-30T22:52:48.161Z,96.90
2022-11-30T22:57:48.206Z,96.50
2022-11-30T23:02:50.581Z,95.60
2022-11-30T23:07:52.986Z,95.80
2022-11-30T23:13:00.042Z,99.90
2022-11-30T23:18:02.734Z,99.80
2022-11-30T23:23:05.186Z,96.10
2022-11-30T23:28:07.670Z,93.70
2022-11-30T23:33:10.497Z,98.40
2022-11-30T23:38:12.987Z,99.00
2022-11-30T23:43:15.373Z,99.40
2022-11-30T23:48:17.762Z,98.90
2022-11-30T23:53:20.681Z,97.50
2022-11-30T23:58:23.768Z,94.60
